sensor_id;sensor_type;location;lat;lon;timestamp;P1;durP1;ratioP1;P2;durP2;ratioP2
43146;SDS011;28752;48.266;7.402;2023-03-14T00:01:30;3.13;;;1.30;;
43146;SDS011;28752;48.266;7.402;2023-03-14T00:03:56;3.13;;;1.10;;
43146;SDS011;28752;48.266;7.402;2023-03-14T00:06:21;3.63;;;1.57;;
43146;SDS011;28752;48.266;7.402;2023-03-14T00:08:47;2.95;;;1.30;;
43146;SDS011;28752;48.266;7.402;2023-03-14T00:11:14;3.42;;;1.50;;
43146;SDS011;28752;48.266;7.402;2023-03-14T00:13:42;2.45;;;1.17;;
43146;SDS011;28752;48.266;7.402;2023-03-14T00:16:11;4.38;;;1.30;;
43146;SDS011;28752;48.266;7.402;2023-03-14T00:18:37;3.63;;;1.20;;
43146;SDS011;28752;48.266;7.402;2023-03-14T00:21:05;3.75;;;1.20;;
43146;SDS011;28752;48.266;7.402;2023-03-14T00:23:32;3.00;;;1.30;;
43146;SDS011;28752;48.266;7.402;2023-03-14T00:25:59;3.85;;;1.20;;
43146;SDS011;28752;48.266;7.402;2023-03-14T00:30:50;4.13;;;1.70;;
43146;SDS011;28752;48.266;7.402;2023-03-14T00:33:16;3.13;;;1.27;;
43146;SDS011;28752;48.266;7.402;2023-03-14T00:35:41;5.17;;;1.50;;
43146;SDS011;28752;48.266;7.402;2023-03-14T00:38:06;3.07;;;1.23;;
43146;SDS011;28752;48.266;7.402;2023-03-14T00:40:32;3.30;;;1.60;;
43146;SDS011;28752;48.266;7.402;2023-03-14T00:42:57;5.37;;;1.47;;
43146;SDS011;28752;48.266;7.402;2023-03-14T00:45:22;3.27;;;1.40;;
43146;SDS011;28752;48.266;7.402;2023-03-14T00:47:48;6.17;;;2.03;;
43146;SDS011;28752;48.266;7.402;2023-03-14T00:50:13;3.10;;;1.30;;
43146;SDS011;28752;48.266;7.402;2023-03-14T00:52:39;4.73;;;1.60;;
43146;SDS011;28752;48.266;7.402;2023-03-14T00:55:04;3.93;;;1.60;;
43146;SDS011;28752;48.266;7.402;2023-03-14T00:57:30;3.90;;;1.50;;
43146;SDS011;28752;48.266;7.402;2023-03-14T00:59:55;3.43;;;1.40;;
43146;SDS011;28752;48.266;7.402;2023-03-14T01:02:21;2.77;;;1.20;;
43146;SDS011;28752;48.266;7.402;2023-03-14T01:04:49;4.23;;;1.30;;
43146;SDS011;28752;48.266;7.402;2023-03-14T01:07:14;5.00;;;1.38;;
43146;SDS011;28752;48.266;7.402;2023-03-14T01:09:40;5.25;;;1.38;;
43146;SDS011;28752;48.266;7.402;2023-03-14T01:12:06;3.60;;;1.00;;
43146;SDS011;28752;48.266;7.402;2023-03-14T01:14:31;4.60;;;1.50;;
43146;SDS011;28752;48.266;7.402;2023-03-14T01:16:56;2.47;;;1.23;;
43146;SDS011;28752;48.266;7.402;2023-03-14T01:19:26;2.75;;;1.10;;
43146;SDS011;28752;48.266;7.402;2023-03-14T01:21:52;3.78;;;1.20;;
43146;SDS011;28752;48.266;7.402;2023-03-14T01:24:17;3.60;;;1.30;;
43146;SDS011;28752;48.266;7.402;2023-03-14T01:26:43;4.17;;;1.50;;
43146;SDS011;28752;48.266;7.402;2023-03-14T01:29:08;3.70;;;1.07;;
43146;SDS011;28752;48.266;7.402;2023-03-14T01:31:33;2.80;;;1.30;;
43146;SDS011;28752;48.266;7.402;2023-03-14T01:33:59;6.30;;;1.50;;
43146;SDS011;28752;48.266;7.402;2023-03-14T01:36:24;3.97;;;1.53;;
43146;SDS011;28752;48.266;7.402;2023-03-14T01:38:49;5.10;;;1.90;;
43146;SDS011;28752;48.266;7.402;2023-03-14T01:41:16;2.77;;;1.20;;
43146;SDS011;28752;48.266;7.402;2023-03-14T01:43:47;2.90;;;1.02;;
43146;SDS011;28752;48.266;7.402;2023-03-14T01:49:02;3.72;;;1.08;;
43146;SDS011;28752;48.266;7.402;2023-03-14T01:54:02;3.00;;;1.27;;
43146;SDS011;28752;48.266;7.402;2023-03-14T01:56:33;4.05;;;1.20;;
43146;SDS011;28752;48.266;7.402;2023-03-14T01:59:00;2.75;;;0.95;;
43146;SDS011;28752;48.266;7.402;2023-03-14T02:01:31;2.97;;;1.23;;
43146;SDS011;28752;48.266;7.402;2023-03-14T02:03:57;3.90;;;1.40;;
43146;SDS011;28752;48.266;7.402;2023-03-14T02:06:28;4.13;;;1.00;;
43146;SDS011;28752;48.266;7.402;2023-03-14T02:08:59;4.90;;;1.20;;
43146;SDS011;28752;48.266;7.402;2023-03-14T02:11:26;2.47;;;0.95;;
43146;SDS011;28752;48.266;7.402;2023-03-14T02:13:54;4.72;;;1.48;;
43146;SDS011;28752;48.266;7.402;2023-03-14T02:16:21;3.05;;;1.00;;
43146;SDS011;28752;48.266;7.402;2023-03-14T02:18:47;2.63;;;0.73;;
43146;SDS011;28752;48.266;7.402;2023-03-14T02:23:56;3.35;;;1.17;;
43146;SDS011;28752;48.266;7.402;2023-03-14T02:27:16;2.97;;;1.10;;
43146;SDS011;28752;48.266;7.402;2023-03-14T02:29:33;3.67;;;1.08;;
43146;SDS011;28752;48.266;7.402;2023-03-14T02:32:01;3.60;;;1.20;;
43146;SDS011;28752;48.266;7.402;2023-03-14T02:34:27;3.28;;;1.05;;
43146;SDS011;28752;48.266;7.402;2023-03-14T02:36:53;3.65;;;0.95;;
43146;SDS011;28752;48.266;7.402;2023-03-14T02:39:24;3.90;;;1.10;;
43146;SDS011;28752;48.266;7.402;2023-03-14T02:41:57;4.82;;;1.00;;
43146;SDS011;28752;48.266;7.402;2023-03-14T02:44:22;3.17;;;1.13;;
43146;SDS011;28752;48.266;7.402;2023-03-14T02:46:48;2.83;;;1.07;;
43146;SDS011;28752;48.266;7.402;2023-03-14T02:49:13;4.37;;;1.13;;
43146;SDS011;28752;48.266;7.402;2023-03-14T02:51:39;6.70;;;1.30;;
43146;SDS011;28752;48.266;7.402;2023-03-14T02:54:07;3.50;;;0.98;;
43146;SDS011;28752;48.266;7.402;2023-03-14T02:56:33;5.20;;;0.90;;
43146;SDS011;28752;48.266;7.402;2023-03-14T02:58:58;4.93;;;1.17;;
43146;SDS011;28752;48.266;7.402;2023-03-14T03:01:24;3.10;;;1.00;;
43146;SDS011;28752;48.266;7.402;2023-03-14T03:03:50;4.40;;;1.25;;
43146;SDS011;28752;48.266;7.402;2023-03-14T03:06:15;3.90;;;0.97;;
43146;SDS011;28752;48.266;7.402;2023-03-14T03:08:41;5.22;;;1.15;;
43146;SDS011;28752;48.266;7.402;2023-03-14T03:11:06;3.87;;;0.90;;
43146;SDS011;28752;48.266;7.402;2023-03-14T03:13:32;4.50;;;1.00;;
43146;SDS011;28752;48.266;7.402;2023-03-14T03:15:58;5.07;;;1.02;;
43146;SDS011;28752;48.266;7.402;2023-03-14T03:18:23;4.10;;;1.10;;
43146;SDS011;28752;48.266;7.402;2023-03-14T03:20:49;5.17;;;1.17;;
43146;SDS011;28752;48.266;7.402;2023-03-14T03:23:14;6.43;;;1.30;;
43146;SDS011;28752;48.266;7.402;2023-03-14T03:25:40;2.97;;;0.80;;
43146;SDS011;28752;48.266;7.402;2023-03-14T03:28:05;8.87;;;1.80;;
43146;SDS011;28752;48.266;7.402;2023-03-14T03:30:33;4.00;;;1.20;;
43146;SDS011;28752;48.266;7.402;2023-03-14T03:33:02;4.90;;;0.82;;
43146;SDS011;28752;48.266;7.402;2023-03-14T03:35:27;7.03;;;1.07;;
43146;SDS011;28752;48.266;7.402;2023-03-14T03:37:53;4.47;;;1.10;;
43146;SDS011;28752;48.266;7.402;2023-03-14T03:40:18;4.57;;;0.87;;
43146;SDS011;28752;48.266;7.402;2023-03-14T03:42:43;6.73;;;1.20;;
43146;SDS011;28752;48.266;7.402;2023-03-14T03:45:09;4.53;;;1.10;;
43146;SDS011;28752;48.266;7.402;2023-03-14T03:47:34;4.43;;;1.17;;
43146;SDS011;28752;48.266;7.402;2023-03-14T03:50:00;4.17;;;1.07;;
43146;SDS011;28752;48.266;7.402;2023-03-14T03:52:25;8.40;;;1.20;;
43146;SDS011;28752;48.266;7.402;2023-03-14T03:54:50;4.37;;;1.00;;
43146;SDS011;28752;48.266;7.402;2023-03-14T03:57:16;5.77;;;1.40;;
43146;SDS011;28752;48.266;7.402;2023-03-14T03:59:41;5.27;;;1.30;;
43146;SDS011;28752;48.266;7.402;2023-03-14T04:02:07;11.40;;;1.53;;
43146;SDS011;28752;48.266;7.402;2023-03-14T04:04:32;6.43;;;1.45;;
43146;SDS011;28752;48.266;7.402;2023-03-14T04:06:58;4.37;;;1.13;;
43146;SDS011;28752;48.266;7.402;2023-03-14T04:09:23;5.27;;;1.50;;
43146;SDS011;28752;48.266;7.402;2023-03-14T04:11:49;4.57;;;0.90;;
43146;SDS011;28752;48.266;7.402;2023-03-14T04:14:14;5.17;;;0.97;;
43146;SDS011;28752;48.266;7.402;2023-03-14T04:16:40;5.43;;;1.23;;
43146;SDS011;28752;48.266;7.402;2023-03-14T04:19:05;5.67;;;1.23;;
43146;SDS011;28752;48.266;7.402;2023-03-14T04:21:30;5.00;;;1.13;;
43146;SDS011;28752;48.266;7.402;2023-03-14T04:23:56;3.23;;;0.80;;
43146;SDS011;28752;48.266;7.402;2023-03-14T04:26:21;3.80;;;0.80;;
43146;SDS011;28752;48.266;7.402;2023-03-14T04:28:46;3.80;;;1.23;;
43146;SDS011;28752;48.266;7.402;2023-03-14T04:31:13;3.93;;;1.23;;
43146;SDS011;28752;48.266;7.402;2023-03-14T04:33:44;3.95;;;1.00;;
43146;SDS011;28752;48.266;7.402;2023-03-14T04:36:10;3.58;;;0.70;;
43146;SDS011;28752;48.266;7.402;2023-03-14T04:38:36;6.30;;;1.00;;
43146;SDS011;28752;48.266;7.402;2023-03-14T04:41:01;3.92;;;1.08;;
43146;SDS011;28752;48.266;7.402;2023-03-14T04:43:27;4.07;;;0.70;;
43146;SDS011;28752;48.266;7.402;2023-03-14T04:45:53;6.13;;;1.20;;
43146;SDS011;28752;48.266;7.402;2023-03-14T04:48:19;3.50;;;0.70;;
43146;SDS011;28752;48.266;7.402;2023-03-14T04:50:45;4.85;;;1.13;;
43146;SDS011;28752;48.266;7.402;2023-03-14T04:53:12;3.67;;;0.95;;
43146;SDS011;28752;48.266;7.402;2023-03-14T04:55:37;3.13;;;0.60;;
43146;SDS011;28752;48.266;7.402;2023-03-14T04:58:03;2.57;;;0.60;;
43146;SDS011;28752;48.266;7.402;2023-03-14T05:00:28;2.43;;;0.50;;
43146;SDS011;28752;48.266;7.402;2023-03-14T05:02:53;4.93;;;0.93;;
43146;SDS011;28752;48.266;7.402;2023-03-14T05:05:19;4.57;;;0.70;;
43146;SDS011;28752;48.266;7.402;2023-03-14T05:07:45;4.57;;;0.70;;
43146;SDS011;28752;48.266;7.402;2023-03-14T05:10:10;4.07;;;0.60;;
43146;SDS011;28752;48.266;7.402;2023-03-14T05:12:35;2.03;;;0.43;;
43146;SDS011;28752;48.266;7.402;2023-03-14T05:15:02;3.50;;;0.60;;
43146;SDS011;28752;48.266;7.402;2023-03-14T05:17:29;3.03;;;0.63;;
43146;SDS011;28752;48.266;7.402;2023-03-14T05:19:57;3.70;;;0.80;;
43146;SDS011;28752;48.266;7.402;2023-03-14T05:22:22;4.00;;;0.60;;
43146;SDS011;28752;48.266;7.402;2023-03-14T05:24:47;4.93;;;0.90;;
43146;SDS011;28752;48.266;7.402;2023-03-14T05:27:13;3.00;;;0.80;;
43146;SDS011;28752;48.266;7.402;2023-03-14T05:29:38;4.33;;;0.63;;
43146;SDS011;28752;48.266;7.402;2023-03-14T05:32:03;2.63;;;0.67;;
43146;SDS011;28752;48.266;7.402;2023-03-14T05:34:29;2.63;;;0.57;;
43146;SDS011;28752;48.266;7.402;2023-03-14T05:36:54;2.43;;;0.70;;
43146;SDS011;28752;48.266;7.402;2023-03-14T05:39:21;3.08;;;0.70;;
43146;SDS011;28752;48.266;7.402;2023-03-14T05:41:46;3.70;;;0.85;;
43146;SDS011;28752;48.266;7.402;2023-03-14T05:44:12;3.80;;;0.90;;
43146;SDS011;28752;48.266;7.402;2023-03-14T05:46:37;3.10;;;0.70;;
43146;SDS011;28752;48.266;7.402;2023-03-14T05:49:02;3.20;;;0.80;;
43146;SDS011;28752;48.266;7.402;2023-03-14T05:51:28;2.23;;;0.87;;
43146;SDS011;28752;48.266;7.402;2023-03-14T05:53:53;2.70;;;0.70;;
43146;SDS011;28752;48.266;7.402;2023-03-14T05:56:18;3.80;;;0.70;;
43146;SDS011;28752;48.266;7.402;2023-03-14T05:58:44;3.30;;;0.83;;
43146;SDS011;28752;48.266;7.402;2023-03-14T06:01:09;3.27;;;0.67;;
43146;SDS011;28752;48.266;7.402;2023-03-14T06:03:35;4.03;;;0.80;;
43146;SDS011;28752;48.266;7.402;2023-03-14T06:06:00;5.22;;;1.33;;
43146;SDS011;28752;48.266;7.402;2023-03-14T06:08:26;4.95;;;0.90;;
43146;SDS011;28752;48.266;7.402;2023-03-14T06:10:52;6.28;;;0.90;;
43146;SDS011;28752;48.266;7.402;2023-03-14T06:13:17;1.27;;;0.50;;
43146;SDS011;28752;48.266;7.402;2023-03-14T06:15:43;2.00;;;0.40;;
43146;SDS011;28752;48.266;7.402;2023-03-14T06:18:09;1.07;;;0.40;;
43146;SDS011;28752;48.266;7.402;2023-03-14T06:20:38;3.87;;;0.73;;
43146;SDS011;28752;48.266;7.402;2023-03-14T06:23:04;4.32;;;0.80;;
43146;SDS011;28752;48.266;7.402;2023-03-14T06:27:55;2.92;;;1.00;;
43146;SDS011;28752;48.266;7.402;2023-03-14T06:30:21;1.47;;;0.60;;
43146;SDS011;28752;48.266;7.402;2023-03-14T06:32:46;1.23;;;0.60;;
43146;SDS011;28752;48.266;7.402;2023-03-14T06:35:11;3.53;;;1.07;;
43146;SDS011;28752;48.266;7.402;2023-03-14T06:37:37;5.03;;;1.40;;
43146;SDS011;28752;48.266;7.402;2023-03-14T06:40:02;3.17;;;1.63;;
43146;SDS011;28752;48.266;7.402;2023-03-14T06:42:30;3.05;;;1.10;;
43146;SDS011;28752;48.266;7.402;2023-03-14T06:44:55;2.67;;;1.07;;
43146;SDS011;28752;48.266;7.402;2023-03-14T06:47:20;2.47;;;1.03;;
43146;SDS011;28752;48.266;7.402;2023-03-14T06:49:46;1.97;;;1.00;;
43146;SDS011;28752;48.266;7.402;2023-03-14T06:52:11;2.20;;;0.87;;
43146;SDS011;28752;48.266;7.402;2023-03-14T06:54:36;1.50;;;0.70;;
43146;SDS011;28752;48.266;7.402;2023-03-14T06:57:02;2.25;;;1.00;;
43146;SDS011;28752;48.266;7.402;2023-03-14T06:59:27;4.13;;;1.40;;
43146;SDS011;28752;48.266;7.402;2023-03-14T07:01:53;3.10;;;0.90;;
43146;SDS011;28752;48.266;7.402;2023-03-14T07:04:18;2.03;;;0.60;;
43146;SDS011;28752;48.266;7.402;2023-03-14T07:06:43;2.07;;;0.63;;
43146;SDS011;28752;48.266;7.402;2023-03-14T07:09:10;2.30;;;0.70;;
43146;SDS011;28752;48.266;7.402;2023-03-14T07:11:36;2.55;;;0.98;;
43146;SDS011;28752;48.266;7.402;2023-03-14T07:14:02;4.40;;;0.85;;
43146;SDS011;28752;48.266;7.402;2023-03-14T07:16:27;3.05;;;1.10;;
43146;SDS011;28752;48.266;7.402;2023-03-14T07:18:56;2.28;;;0.95;;
43146;SDS011;28752;48.266;7.402;2023-03-14T07:21:21;2.85;;;0.90;;
43146;SDS011;28752;48.266;7.402;2023-03-14T07:23:47;2.37;;;0.83;;
43146;SDS011;28752;48.266;7.402;2023-03-14T07:26:12;2.50;;;0.80;;
43146;SDS011;28752;48.266;7.402;2023-03-14T07:28:37;2.83;;;0.70;;
43146;SDS011;28752;48.266;7.402;2023-03-14T07:31:03;2.37;;;0.77;;
43146;SDS011;28752;48.266;7.402;2023-03-14T07:33:29;2.72;;;0.98;;
43146;SDS011;28752;48.266;7.402;2023-03-14T07:35:54;3.40;;;1.33;;
43146;SDS011;28752;48.266;7.402;2023-03-14T07:38:19;4.27;;;1.23;;
43146;SDS011;28752;48.266;7.402;2023-03-14T07:40:45;3.63;;;1.23;;
43146;SDS011;28752;48.266;7.402;2023-03-14T07:43:10;3.13;;;1.63;;
43146;SDS011;28752;48.266;7.402;2023-03-14T07:45:35;3.40;;;1.70;;
43146;SDS011;28752;48.266;7.402;2023-03-14T07:48:01;3.60;;;1.50;;
43146;SDS011;28752;48.266;7.402;2023-03-14T07:50:27;3.38;;;1.45;;
43146;SDS011;28752;48.266;7.402;2023-03-14T07:52:53;2.00;;;0.80;;
43146;SDS011;28752;48.266;7.402;2023-03-14T07:55:19;3.03;;;1.17;;
43146;SDS011;28752;48.266;7.402;2023-03-14T07:57:45;1.90;;;0.90;;
43146;SDS011;28752;48.266;7.402;2023-03-14T08:00:10;2.00;;;0.70;;
43146;SDS011;28752;48.266;7.402;2023-03-14T08:02:36;1.10;;;0.35;;
43146;SDS011;28752;48.266;7.402;2023-03-14T08:05:02;1.27;;;0.43;;
43146;SDS011;28752;48.266;7.402;2023-03-14T08:07:28;1.58;;;0.50;;
43146;SDS011;28752;48.266;7.402;2023-03-14T08:09:54;1.23;;;0.50;;
43146;SDS011;28752;48.266;7.402;2023-03-14T08:12:19;1.17;;;0.33;;
43146;SDS011;28752;48.266;7.402;2023-03-14T08:14:44;1.23;;;0.30;;
43146;SDS011;28752;48.266;7.402;2023-03-14T08:17:10;0.60;;;0.20;;
43146;SDS011;28752;48.266;7.402;2023-03-14T08:19:35;0.23;;;0.20;;
43146;SDS011;28752;48.266;7.402;2023-03-14T08:22:00;0.60;;;0.20;;
43146;SDS011;28752;48.266;7.402;2023-03-14T08:24:26;3.25;;;0.20;;
43146;SDS011;28752;48.266;7.402;2023-03-14T08:26:51;0.30;;;0.17;;
43146;SDS011;28752;48.266;7.402;2023-03-14T08:29:17;1.03;;;0.30;;
43146;SDS011;28752;48.266;7.402;2023-03-14T08:31:42;0.40;;;0.30;;
43146;SDS011;28752;48.266;7.402;2023-03-14T08:34:07;0.60;;;0.23;;
43146;SDS011;28752;48.266;7.402;2023-03-14T08:36:33;0.60;;;0.20;;
43146;SDS011;28752;48.266;7.402;2023-03-14T08:38:58;0.40;;;0.25;;
43146;SDS011;28752;48.266;7.402;2023-03-14T08:41:24;0.50;;;0.30;;
43146;SDS011;28752;48.266;7.402;2023-03-14T08:43:49;1.13;;;0.30;;
43146;SDS011;28752;48.266;7.402;2023-03-14T08:46:15;1.10;;;0.30;;
43146;SDS011;28752;48.266;7.402;2023-03-14T08:48:40;1.80;;;0.40;;
43146;SDS011;28752;48.266;7.402;2023-03-14T08:53:32;0.98;;;0.32;;
43146;SDS011;28752;48.266;7.402;2023-03-14T08:55:58;1.13;;;0.50;;
43146;SDS011;28752;48.266;7.402;2023-03-14T08:58:23;0.97;;;0.30;;
43146;SDS011;28752;48.266;7.402;2023-03-14T09:00:49;0.77;;;0.30;;
43146;SDS011;28752;48.266;7.402;2023-03-14T09:03:14;0.85;;;0.20;;
43146;SDS011;28752;48.266;7.402;2023-03-14T09:05:40;0.95;;;0.40;;
43146;SDS011;28752;48.266;7.402;2023-03-14T09:08:05;1.47;;;0.47;;
43146;SDS011;28752;48.266;7.402;2023-03-14T09:10:31;1.53;;;0.40;;
43146;SDS011;28752;48.266;7.402;2023-03-14T09:12:56;1.53;;;0.30;;
43146;SDS011;28752;48.266;7.402;2023-03-14T09:15:23;2.08;;;0.75;;
43146;SDS011;28752;48.266;7.402;2023-03-14T09:17:48;1.38;;;0.50;;
43146;SDS011;28752;48.266;7.402;2023-03-14T09:20:14;1.87;;;0.70;;
43146;SDS011;28752;48.266;7.402;2023-03-14T09:22:39;1.27;;;0.40;;
43146;SDS011;28752;48.266;7.402;2023-03-14T09:25:05;1.23;;;0.30;;
43146;SDS011;28752;48.266;7.402;2023-03-14T09:27:31;0.52;;;0.28;;
43146;SDS011;28752;48.266;7.402;2023-03-14T09:29:56;1.50;;;0.50;;
43146;SDS011;28752;48.266;7.402;2023-03-14T09:32:21;1.10;;;0.37;;
43146;SDS011;28752;48.266;7.402;2023-03-14T09:34:47;1.70;;;0.50;;
43146;SDS011;28752;48.266;7.402;2023-03-14T09:37:12;0.82;;;0.30;;
43146;SDS011;28752;48.266;7.402;2023-03-14T09:39:38;1.37;;;0.60;;
43146;SDS011;28752;48.266;7.402;2023-03-14T09:42:04;1.17;;;0.40;;
43146;SDS011;28752;48.266;7.402;2023-03-14T09:44:34;1.00;;;0.40;;
43146;SDS011;28752;48.266;7.402;2023-03-14T09:47:04;1.58;;;0.60;;
43146;SDS011;28752;48.266;7.402;2023-03-14T09:49:35;1.25;;;0.43;;
43146;SDS011;28752;48.266;7.402;2023-03-14T09:52:23;2.08;;;0.55;;
43146;SDS011;28752;48.266;7.402;2023-03-14T09:54:54;1.85;;;0.60;;
43146;SDS011;28752;48.266;7.402;2023-03-14T09:57:32;1.15;;;0.40;;
43146;SDS011;28752;48.266;7.402;2023-03-14T10:00:04;2.45;;;0.60;;
43146;SDS011;28752;48.266;7.402;2023-03-14T10:02:39;1.63;;;0.40;;
43146;SDS011;28752;48.266;7.402;2023-03-14T10:05:20;1.25;;;0.50;;
43146;SDS011;28752;48.266;7.402;2023-03-14T10:07:47;1.98;;;0.47;;
43146;SDS011;28752;48.266;7.402;2023-03-14T10:10:16;1.07;;;0.43;;
43146;SDS011;28752;48.266;7.402;2023-03-14T10:12:52;1.10;;;0.60;;
43146;SDS011;28752;48.266;7.402;2023-03-14T10:15:25;1.60;;;0.50;;
43146;SDS011;28752;48.266;7.402;2023-03-14T10:17:54;4.03;;;1.17;;
43146;SDS011;28752;48.266;7.402;2023-03-14T10:23:33;1.65;;;0.50;;
43146;SDS011;28752;48.266;7.402;2023-03-14T10:26:04;1.92;;;0.68;;
43146;SDS011;28752;48.266;7.402;2023-03-14T10:28:38;1.35;;;0.68;;
43146;SDS011;28752;48.266;7.402;2023-03-14T10:38:32;0.28;;;0.15;;
43146;SDS011;28752;48.266;7.402;2023-03-14T10:40:59;0.43;;;0.10;;
43146;SDS011;28752;48.266;7.402;2023-03-14T10:43:33;0.77;;;0.20;;
43146;SDS011;28752;48.266;7.402;2023-03-14T10:46:02;1.77;;;0.32;;
43146;SDS011;28752;48.266;7.402;2023-03-14T10:48:31;0.68;;;0.20;;
43146;SDS011;28752;48.266;7.402;2023-03-14T10:53:25;2.50;;;1.20;;
43146;SDS011;28752;48.266;7.402;2023-03-14T10:55:51;0.77;;;0.38;;
43146;SDS011;28752;48.266;7.402;2023-03-14T10:58:21;2.88;;;2.22;;
43146;SDS011;28752;48.266;7.402;2023-03-14T11:00:48;1.13;;;0.60;;
43146;SDS011;28752;48.266;7.402;2023-03-14T11:03:28;1.48;;;0.40;;
43146;SDS011;28752;48.266;7.402;2023-03-14T11:16:34;1.05;;;0.43;;
43146;SDS011;28752;48.266;7.402;2023-03-14T11:19:21;1.27;;;0.77;;
43146;SDS011;28752;48.266;7.402;2023-03-14T11:22:21;2.22;;;0.55;;
43146;SDS011;28752;48.266;7.402;2023-03-14T11:25:07;2.20;;;0.50;;
43146;SDS011;28752;48.266;7.402;2023-03-14T11:30:41;2.88;;;0.50;;
43146;SDS011;28752;48.266;7.402;2023-03-14T11:33:14;1.10;;;0.43;;
43146;SDS011;28752;48.266;7.402;2023-03-14T11:35:49;1.17;;;0.40;;
43146;SDS011;28752;48.266;7.402;2023-03-14T11:41:02;2.47;;;0.60;;
43146;SDS011;28752;48.266;7.402;2023-03-14T11:43:35;1.02;;;0.32;;
43146;SDS011;28752;48.266;7.402;2023-03-14T11:46:09;2.22;;;0.88;;
43146;SDS011;28752;48.266;7.402;2023-03-14T11:51:14;1.90;;;0.47;;
43146;SDS011;28752;48.266;7.402;2023-03-14T11:53:53;2.03;;;0.75;;
43146;SDS011;28752;48.266;7.402;2023-03-14T11:56:55;1.40;;;0.57;;
43146;SDS011;28752;48.266;7.402;2023-03-14T11:59:23;1.58;;;0.30;;
43146;SDS011;28752;48.266;7.402;2023-03-14T12:01:56;3.63;;;0.60;;
43146;SDS011;28752;48.266;7.402;2023-03-14T12:07:17;4.03;;;0.88;;
43146;SDS011;28752;48.266;7.402;2023-03-14T12:09:45;3.15;;;0.50;;
43146;SDS011;28752;48.266;7.402;2023-03-14T12:12:14;2.67;;;0.70;;
43146;SDS011;28752;48.266;7.402;2023-03-14T12:14:55;2.65;;;0.40;;
43146;SDS011;28752;48.266;7.402;2023-03-14T12:17:27;2.10;;;0.43;;
43146;SDS011;28752;48.266;7.402;2023-03-14T12:22:50;2.17;;;0.55;;
43146;SDS011;28752;48.266;7.402;2023-03-14T12:25:17;3.05;;;0.60;;
43146;SDS011;28752;48.266;7.402;2023-03-14T12:27:45;4.13;;;0.60;;
43146;SDS011;28752;48.266;7.402;2023-03-14T12:30:21;1.02;;;0.30;;
43146;SDS011;28752;48.266;7.402;2023-03-14T12:35:43;1.60;;;0.60;;
43146;SDS011;28752;48.266;7.402;2023-03-14T12:43:45;1.08;;;0.35;;
43146;SDS011;28752;48.266;7.402;2023-03-14T12:48:48;2.95;;;0.50;;
43146;SDS011;28752;48.266;7.402;2023-03-14T12:59:51;2.08;;;0.60;;
43146;SDS011;28752;48.266;7.402;2023-03-14T13:15:39;2.20;;;0.75;;
43146;SDS011;28752;48.266;7.402;2023-03-14T13:18:11;1.90;;;0.50;;
43146;SDS011;28752;48.266;7.402;2023-03-14T13:20:51;2.63;;;0.47;;
43146;SDS011;28752;48.266;7.402;2023-03-14T13:23:40;3.72;;;0.60;;
43146;SDS011;28752;48.266;7.402;2023-03-14T13:26:11;1.38;;;0.50;;
43146;SDS011;28752;48.266;7.402;2023-03-14T13:28:40;2.28;;;0.63;;
43146;SDS011;28752;48.266;7.402;2023-03-14T13:31:12;4.82;;;0.82;;
43146;SDS011;28752;48.266;7.402;2023-03-14T13:34:00;4.20;;;0.70;;
43146;SDS011;28752;48.266;7.402;2023-03-14T13:36:27;2.17;;;0.70;;
43146;SDS011;28752;48.266;7.402;2023-03-14T13:38:56;3.97;;;0.70;;
43146;SDS011;28752;48.266;7.402;2023-03-14T13:41:24;6.03;;;1.02;;
43146;SDS011;28752;48.266;7.402;2023-03-14T13:43:50;3.03;;;1.05;;
43146;SDS011;28752;48.266;7.402;2023-03-14T13:46:16;1.87;;;0.70;;
43146;SDS011;28752;48.266;7.402;2023-03-14T13:48:55;3.50;;;0.65;;
43146;SDS011;28752;48.266;7.402;2023-03-14T13:51:23;4.47;;;1.75;;
43146;SDS011;28752;48.266;7.402;2023-03-14T13:53:53;4.60;;;0.82;;
43146;SDS011;28752;48.266;7.402;2023-03-14T13:56:21;3.47;;;0.70;;
43146;SDS011;28752;48.266;7.402;2023-03-14T13:58:48;2.47;;;0.65;;
43146;SDS011;28752;48.266;7.402;2023-03-14T14:01:36;2.08;;;0.77;;
43146;SDS011;28752;48.266;7.402;2023-03-14T14:04:06;2.97;;;0.80;;
43146;SDS011;28752;48.266;7.402;2023-03-14T14:06:35;3.17;;;0.70;;
43146;SDS011;28752;48.266;7.402;2023-03-14T14:09:03;2.70;;;0.70;;
43146;SDS011;28752;48.266;7.402;2023-03-14T14:14:12;4.45;;;0.80;;
43146;SDS011;28752;48.266;7.402;2023-03-14T14:16:44;3.72;;;0.75;;
43146;SDS011;28752;48.266;7.402;2023-03-14T14:19:12;5.65;;;0.80;;
43146;SDS011;28752;48.266;7.402;2023-03-14T14:21:39;3.20;;;0.77;;
43146;SDS011;28752;48.266;7.402;2023-03-14T14:24:05;3.20;;;0.70;;
43146;SDS011;28752;48.266;7.402;2023-03-14T14:26:31;5.22;;;1.80;;
43146;SDS011;28752;48.266;7.402;2023-03-14T14:29:04;4.73;;;1.20;;
43146;SDS011;28752;48.266;7.402;2023-03-14T14:31:30;3.90;;;0.70;;
43146;SDS011;28752;48.266;7.402;2023-03-14T14:33:57;6.97;;;1.40;;
43146;SDS011;28752;48.266;7.402;2023-03-14T14:36:30;6.68;;;1.30;;
43146;SDS011;28752;48.266;7.402;2023-03-14T14:39:11;3.58;;;1.20;;
43146;SDS011;28752;48.266;7.402;2023-03-14T14:41:42;3.95;;;0.77;;
43146;SDS011;28752;48.266;7.402;2023-03-14T14:44:12;5.05;;;1.17;;
43146;SDS011;28752;48.266;7.402;2023-03-14T14:46:39;3.90;;;0.85;;
43146;SDS011;28752;48.266;7.402;2023-03-14T14:49:14;3.50;;;0.80;;
43146;SDS011;28752;48.266;7.402;2023-03-14T14:51:43;3.08;;;0.90;;
43146;SDS011;28752;48.266;7.402;2023-03-14T14:54:16;4.47;;;1.10;;
43146;SDS011;28752;48.266;7.402;2023-03-14T14:56:50;5.85;;;1.13;;
43146;SDS011;28752;48.266;7.402;2023-03-14T14:59:24;3.92;;;1.77;;
43146;SDS011;28752;48.266;7.402;2023-03-14T15:01:58;6.68;;;1.30;;
43146;SDS011;28752;48.266;7.402;2023-03-14T15:04:25;5.00;;;1.35;;
43146;SDS011;28752;48.266;7.402;2023-03-14T15:09:17;4.13;;;1.13;;
43146;SDS011;28752;48.266;7.402;2023-03-14T15:11:43;6.88;;;1.20;;
43146;SDS011;28752;48.266;7.402;2023-03-14T15:14:09;4.10;;;1.30;;
43146;SDS011;28752;48.266;7.402;2023-03-14T15:16:34;4.87;;;1.10;;
43146;SDS011;28752;48.266;7.402;2023-03-14T15:19:01;3.58;;;0.90;;
43146;SDS011;28752;48.266;7.402;2023-03-14T15:21:30;7.55;;;1.77;;
43146;SDS011;28752;48.266;7.402;2023-03-14T15:23:56;5.30;;;1.10;;
43146;SDS011;28752;48.266;7.402;2023-03-14T15:26:23;4.63;;;1.20;;
43146;SDS011;28752;48.266;7.402;2023-03-14T15:28:50;3.65;;;0.82;;
43146;SDS011;28752;48.266;7.402;2023-03-14T15:31:16;6.07;;;1.02;;
43146;SDS011;28752;48.266;7.402;2023-03-14T15:33:44;5.28;;;1.10;;
43146;SDS011;28752;48.266;7.402;2023-03-14T15:38:49;4.70;;;1.23;;
43146;SDS011;28752;48.266;7.402;2023-03-14T15:41:14;5.47;;;1.30;;
43146;SDS011;28752;48.266;7.402;2023-03-14T15:43:40;7.15;;;1.20;;
43146;SDS011;28752;48.266;7.402;2023-03-14T15:46:08;7.40;;;1.52;;
43146;SDS011;28752;48.266;7.402;2023-03-14T15:48:34;6.28;;;1.38;;
43146;SDS011;28752;48.266;7.402;2023-03-14T15:51:00;3.55;;;1.27;;
43146;SDS011;28752;48.266;7.402;2023-03-14T15:53:25;3.77;;;0.80;;
43146;SDS011;28752;48.266;7.402;2023-03-14T15:55:51;2.10;;;0.68;;
43146;SDS011;28752;48.266;7.402;2023-03-14T15:58:17;4.83;;;1.10;;
43146;SDS011;28752;48.266;7.402;2023-03-14T16:00:44;1.83;;;0.60;;
43146;SDS011;28752;48.266;7.402;2023-03-14T16:03:09;3.63;;;0.80;;
43146;SDS011;28752;48.266;7.402;2023-03-14T16:10:28;3.65;;;0.90;;
43146;SDS011;28752;48.266;7.402;2023-03-14T16:12:53;1.87;;;0.70;;
43146;SDS011;28752;48.266;7.402;2023-03-14T16:15:19;3.13;;;0.80;;
43146;SDS011;28752;48.266;7.402;2023-03-14T16:17:44;3.03;;;0.77;;
43146;SDS011;28752;48.266;7.402;2023-03-14T16:20:10;4.67;;;0.80;;
43146;SDS011;28752;48.266;7.402;2023-03-14T16:25:05;2.13;;;0.57;;
43146;SDS011;28752;48.266;7.402;2023-03-14T16:27:32;3.55;;;0.98;;
43146;SDS011;28752;48.266;7.402;2023-03-14T16:29:57;4.60;;;1.20;;
43146;SDS011;28752;48.266;7.402;2023-03-14T16:32:27;5.18;;;1.33;;